Terminal Aerodrome Forecast
Issued by NWS Charleston, WV

Current Version | Previous Version | Graphics & Text | Print | Product List | Glossary On
Versions: 1 2 3 4 5 6 7 8 9 10 11 12 13 14 15 16 17 18 19 20 21 22 23
000
FTUS41 KRLX 220200 AAA
TAFPKB
TAF AMD
KPKB 220215Z 2202/2224 30008G15KT P6SM SCT045
     FM220400 30008KT P6SM BKN035
     FM220700 30007KT P6SM BKN025
     FM221500 31008KT P6SM BKN035=

USA.gov is the U.S. government's official web portal to all federal, state and local government web resources and services.